Time;durP1;ratioP1;P1;durP2;ratioP2;P2;SDS_P1;SDS_P2;PMS_P1;PMS_P2;Temp;Humidity;BMP_temperature;BMP_pressure;BME280_temperature;BME280_humidity;BME280_pressure;Samples;Min_cycle;Max_cycle;Signal;HPM_P1;HPM_P2
2022/01/28 00:00:50;;;;;;;;;;;;;;;;;;4222747;28;942;-66
2022/01/28 00:03:10;;;;;;;;;;;;;;;;;;4222950;28;1005;-66
2022/01/28 00:05:31;;;;;;;;;;;;;;;;;;4222967;28;979;-65
2022/01/28 00:07:52;;;;;;;;;;;;;;;;;;4222806;28;841;-64
2022/01/28 00:10:12;;;;;;;;;;;;;;;;;;4222609;28;1019;-65
2022/01/28 00:12:34;;;;;;;;;;;;;;;;;;4222819;28;932;-67
2022/01/28 00:15:04;;;;;;;;;;;;;;;;;;4222549;28;1165;-64
2022/01/28 00:36:44;;;;;;;;;;;;;;;;;;4221333;28;853;-66
2022/01/28 00:39:04;;;;;;;;;;;;;;;;;;4222412;28;1978;-66
2022/01/28 00:41:24;;;;;;;;;;;;;;;;;;4222514;28;1004;-65
2022/01/28 00:43:44;;;;;;;;;;;;;;;;;;4222368;28;912;-66
2022/01/28 00:46:04;;;;;;;;;;;;;;;;;;4220822;28;1170;-66
2022/01/28 00:48:25;;;;;;;;;;;;;;;;;;4221947;28;1006;-67
2022/01/28 00:50:45;;;;;;;;;;;;;;;;;;4220914;28;1097;-66
2022/01/28 00:53:06;;;;;;;;;;;;;;;;;;4222167;28;1071;-66
2022/01/28 00:55:26;;;;;;;;;;;;;;;;;;4221507;28;830;-67
2022/01/28 00:57:46;;;;;;;;;;;;;;;;;;4222217;28;1984;-64
2022/01/28 01:00:07;;;;;;;;;;;;;;;;;;4222072;28;1065;-65
2022/01/28 01:02:28;;;;;;;;;;;;;;;;;;4221930;28;1092;-67
2022/01/28 01:04:48;;;;;;;;;;;;;;;;;;4220409;28;927;-66
2022/01/28 01:07:09;;;;;;;;;;;;;;;;;;4222084;28;1290;-66
2022/01/28 01:09:29;;;;;;;;;;;;;;;;;;4221220;28;891;-66
2022/01/28 01:11:50;;;;;;;;;;;;;;;;;;4221081;28;854;-66
2022/01/28 01:14:11;;;;;;;;;;;;;;;;;;4221813;28;1157;-65
2022/01/28 01:16:38;;;;;;;;;;;;;;;;;;4222056;28;927;-65
2022/01/28 01:19:15;;;;;;;;;;;;;;;;;;4221723;28;1981;-65
2022/01/28 01:21:38;;;;;;;;;;;;;;;;;;4221678;28;1037;-65
2022/01/28 01:23:59;;;;;;;;;;;;;;;;;;4221783;28;1075;-65
2022/01/28 01:26:21;;;;;;;;;;;;;;;;;;4221611;28;1087;-65
2022/01/28 01:28:42;;;;;;;;;;;;;;;;;;4221949;28;893;-64
2022/01/28 01:31:04;;;;;;;;;;;;;;;;;;4221094;28;987;-66
2022/01/28 01:33:26;;;;;;;;;;;;;;;;;;4221387;28;1252;-64
2022/01/28 01:35:46;;;;;;;;;;;;;;;;;;4221663;28;1018;-64
2022/01/28 01:38:09;;;;;;;;;;;;;;;;;;4221473;28;1909;-64
2022/01/28 01:40:34;;;;;;;;;;;;;;;;;;4221762;28;877;-64
2022/01/28 01:43:06;;;;;;;;;;;;;;;;;;4220597;28;1053;-64
2022/01/28 01:53:17;;;;;;;;;;;;;;;;;;4221458;28;1002;-65
2022/01/28 01:55:38;;;;;;;;;;;;;;;;;;4221540;28;928;-65
2022/01/28 01:57:58;;;;;;;;;;;;;;;;;;4221150;28;1906;-64
2022/01/28 02:03:44;;;;;;;;;;;;;;;;;;4220955;28;1331;-69
2022/01/28 02:06:05;;;;;;;;;;;;;;;;;;4220812;28;1275;-65
2022/01/28 02:08:27;;;;;;;;;;;;;;;;;;4221236;28;853;-66
2022/01/28 02:10:49;;;;;;;;;;;;;;;;;;4221014;28;1011;-66
2022/01/28 02:13:10;;;;;;;;;;;;;;;;;;4220650;28;1161;-66
2022/01/28 02:15:30;;;;;;;;;;;;;;;;;;4222081;28;1172;-67
2022/01/28 02:17:50;;;;;;;;;;;;;;;;;;4222424;28;1906;-66
2022/01/28 02:20:11;;;;;;;;;;;;;;;;;;4223708;28;916;-66
2022/01/28 02:22:31;;;;;;;;;;;;;;;;;;4223454;28;930;-66
2022/01/28 02:24:51;;;;;;;;;;;;;;;;;;4223409;28;937;-66
2022/01/28 02:27:15;;;;;;;;;;;;;;;;;;4223306;28;1148;-67
2022/01/28 02:29:36;;;;;;;;;;;;;;;;;;4223819;28;1016;-66
2022/01/28 02:31:57;;;;;;;;;;;;;;;;;;4223626;28;1290;-67
2022/01/28 02:34:17;;;;;;;;;;;;;;;;;;4222293;28;1221;-67
2022/01/28 02:36:38;;;;;;;;;;;;;;;;;;4223320;28;1266;-66
2022/01/28 02:38:59;;;;;;;;;;;;;;;;;;4223379;28;1901;-67
2022/01/28 02:41:21;;;;;;;;;;;;;;;;;;4222385;28;948;-66
2022/01/28 02:43:47;;;;;;;;;;;;;;;;;;4223414;28;928;-66
2022/01/28 02:46:10;;;;;;;;;;;;;;;;;;4223468;28;944;-66
2022/01/28 02:48:32;;;;;;;;;;;;;;;;;;4223394;28;1287;-66
2022/01/28 02:51:02;;;;;;;;;;;;;;;;;;4223204;28;1267;-64
2022/01/28 02:53:25;;;;;;;;;;;;;;;;;;4223254;28;1039;-64
2022/01/28 02:55:46;;;;;;;;;;;;;;;;;;4223805;28;832;-65
2022/01/28 02:58:21;;;;;;;;;;;;;;;;;;4223431;28;1988;-64
2022/01/28 03:00:42;;;;;;;;;;;;;;;;;;4223697;28;994;-64
2022/01/28 03:03:02;;;;;;;;;;;;;;;;;;4223591;28;929;-64
2022/01/28 03:05:33;;;;;;;;;;;;;;;;;;4223644;28;1151;-64
2022/01/28 03:07:53;;;;;;;;;;;;;;;;;;4223413;28;986;-66
2022/01/28 03:10:31;;;;;;;;;;;;;;;;;;4223477;28;974;-66
2022/01/28 03:13:14;;;;;;;;;;;;;;;;;;4223293;28;1065;-66
2022/01/28 03:15:36;;;;;;;;;;;;;;;;;;4223315;28;933;-64
2022/01/28 03:18:08;;;;;;;;;;;;;;;;;;4223297;28;970;-65
2022/01/28 03:20:37;;;;;;;;;;;;;;;;;;4223415;28;1044;-64
2022/01/28 03:22:58;;;;;;;;;;;;;;;;;;4222447;28;1003;-64
2022/01/28 03:25:18;;;;;;;;;;;;;;;;;;4223549;28;847;-64
2022/01/28 03:27:49;;;;;;;;;;;;;;;;;;4223265;28;1090;-64
2022/01/28 03:30:10;;;;;;;;;;;;;;;;;;4223420;28;1056;-64
2022/01/28 03:32:30;;;;;;;;;;;;;;;;;;4223264;28;1606;-67
2022/01/28 03:34:51;;;;;;;;;;;;;;;;;;4223238;28;978;-66
2022/01/28 03:37:12;;;;;;;;;;;;;;;;;;4223336;28;927;-66
2022/01/28 03:39:32;;;;;;;;;;;;;;;;;;4222954;28;1909;-65
2022/01/28 03:41:52;;;;;;;;;;;;;;;;;;4222822;28;968;-65
2022/01/28 03:44:13;;;;;;;;;;;;;;;;;;4222731;28;1153;-66
2022/01/28 03:46:33;;;;;;;;;;;;;;;;;;4223071;28;1495;-66
2022/01/28 03:48:53;;;;;;;;;;;;;;;;;;4223091;28;1056;-67
2022/01/28 03:51:13;;;;;;;;;;;;;;;;;;4223007;28;914;-66
2022/01/28 03:53:35;;;;;;;;;;;;;;;;;;4223008;28;989;-66
2022/01/28 03:55:57;;;;;;;;;;;;;;;;;;4223000;28;1072;-64
2022/01/28 03:58:18;;;;;;;;;;;;;;;;;;4222959;28;893;-68
2022/01/28 04:00:38;;;;;;;;;;;;;;;;;;4222790;28;950;-66
2022/01/28 04:03:06;;;;;;;;;;;;;;;;;;4222602;28;1034;-66
2022/01/28 04:13:25;;;;;;;;;;;;;;;;;;4222674;28;1031;-64
2022/01/28 04:15:54;;;;;;;;;;;;;;;;;;4221663;28;888;-66
2022/01/28 04:18:14;;;;;;;;;;;;;;;;;;4222529;28;925;-66
2022/01/28 04:20:34;;;;;;;;;;;;;;;;;;4222691;28;1025;-66
2022/01/28 04:22:55;;;;;;;;;;;;;;;;;;4222411;28;986;-66
2022/01/28 04:25:15;;;;;;;;;;;;;;;;;;4222701;28;1130;-66
2022/01/28 04:27:35;;;;;;;;;;;;;;;;;;4222543;28;1216;-66
2022/01/28 04:29:55;;;;;;;;;;;;;;;;;;4222613;28;936;-66
2022/01/28 04:32:18;;;;;;;;;;;;;;;;;;4222119;28;1059;-67
2022/01/28 04:34:39;;;;;;;;;;;;;;;;;;4222228;28;977;-67
2022/01/28 04:37:07;;;;;;;;;;;;;;;;;;4222115;28;984;-66
2022/01/28 04:39:35;;;;;;;;;;;;;;;;;;4221054;28;1901;-68
2022/01/28 04:42:03;;;;;;;;;;;;;;;;;;4221453;28;851;-64
2022/01/28 04:44:31;;;;;;;;;;;;;;;;;;4222438;28;1056;-66
2022/01/28 04:46:59;;;;;;;;;;;;;;;;;;4222369;28;971;-66
2022/01/28 04:49:26;;;;;;;;;;;;;;;;;;4222857;28;936;-66
2022/01/28 04:51:59;;;;;;;;;;;;;;;;;;4222421;28;865;-66
2022/01/28 04:54:38;;;;;;;;;;;;;;;;;;4222290;28;958;-65
2022/01/28 04:57:07;;;;;;;;;;;;;;;;;;4221003;28;1134;-64
2022/01/28 04:59:42;;;;;;;;;;;;;;;;;;4221981;28;1898;-65
2022/01/28 05:04:56;;;;;;;;;;;;;;;;;;4222040;28;1144;-64
2022/01/28 05:07:36;;;;;;;;;;;;;;;;;;4222201;28;864;-65
2022/01/28 05:26:27;;;;;;;;;;;;;;;;;;4222019;28;986;-65
2022/01/28 05:28:49;;;;;;;;;;;;;;;;;;4220213;28;986;-66
2022/01/28 05:31:09;;;;;;;;;;;;;;;;;;4221556;28;1369;-66
2022/01/28 05:33:30;;;;;;;;;;;;;;;;;;4221383;28;1294;-66
2022/01/28 05:35:51;;;;;;;;;;;;;;;;;;4221968;28;854;-67
2022/01/28 05:38:11;;;;;;;;;;;;;;;;;;4221708;28;1016;-67
2022/01/28 05:40:31;;;;;;;;;;;;;;;;;;4221917;28;2018;-67
2022/01/28 05:42:52;;;;;;;;;;;;;;;;;;4221583;28;1032;-67
2022/01/28 05:45:13;;;;;;;;;;;;;;;;;;4221630;28;1008;-67
2022/01/28 05:47:36;;;;;;;;;;;;;;;;;;4221719;28;928;-66
2022/01/28 05:49:57;;;;;;;;;;;;;;;;;;4222085;28;1219;-66
2022/01/28 05:52:17;;;;;;;;;;;;;;;;;;4223612;28;1061;-66
2022/01/28 05:54:37;;;;;;;;;;;;;;;;;;4224563;28;909;-66
2022/01/28 05:56:58;;;;;;;;;;;;;;;;;;4224590;28;1036;-66
2022/01/28 05:59:19;;;;;;;;;;;;;;;;;;4224170;28;1914;-66
2022/01/28 06:01:40;;;;;;;;;;;;;;;;;;4224490;28;1207;-67
2022/01/28 06:04:00;;;;;;;;;;;;;;;;;;4224555;28;932;-67
2022/01/28 06:06:22;;;;;;;;;;;;;;;;;;4223576;28;1031;-66
2022/01/28 06:08:43;;;;;;;;;;;;;;;;;;4224192;28;908;-66
2022/01/28 06:11:03;;;;;;;;;;;;;;;;;;4224169;28;1204;-64
2022/01/28 06:13:23;;;;;;;;;;;;;;;;;;4223268;28;932;-64
2022/01/28 06:15:43;;;;;;;;;;;;;;;;;;4224226;28;849;-64
2022/01/28 06:18:04;;;;;;;;;;;;;;;;;;4223898;28;999;-65
2022/01/28 06:20:24;;;;;;;;;;;;;;;;;;4224154;28;2020;-64
2022/01/28 06:22:44;;;;;;;;;;;;;;;;;;4224014;28;910;-64
2022/01/28 06:25:05;;;;;;;;;;;;;;;;;;4224105;28;1188;-64
2022/01/28 06:27:28;;;;;;;;;;;;;;;;;;4224174;28;1028;-65
2022/01/28 06:29:48;;;;;;;;;;;;;;;;;;4224099;28;1064;-65
2022/01/28 06:32:11;;;;;;;;;;;;;;;;;;4223873;28;1217;-64
2022/01/28 06:34:32;;;;;;;;;;;;;;;;;;4224044;28;1166;-64
2022/01/28 06:36:52;;;;;;;;;;;;;;;;;;4223943;28;829;-65
2022/01/28 06:39:12;;;;;;;;;;;;;;;;;;4223683;28;1060;-64
2022/01/28 06:41:33;;;;;;;;;;;;;;;;;;4222951;28;1046;-65
2022/01/28 06:43:53;;;;;;;;;;;;;;;;;;4223878;28;1005;-66
2022/01/28 06:46:14;;;;;;;;;;;;;;;;;;4224205;28;849;-65
2022/01/28 06:48:34;;;;;;;;;;;;;;;;;;4223950;28;823;-65
2022/01/28 06:50:55;;;;;;;;;;;;;;;;;;4223728;28;1160;-66
2022/01/28 06:53:15;;;;;;;;;;;;;;;;;;4223463;28;1005;-65
2022/01/28 06:55:36;;;;;;;;;;;;;;;;;;4223700;28;1034;-65
2022/01/28 06:57:56;;;;;;;;;;;;;;;;;;4223805;28;1239;-65
2022/01/28 07:00:17;;;;;;;;;;;;;;;;;;4223361;28;1992;-65
2022/01/28 07:02:38;;;;;;;;;;;;;;;;;;4222340;28;1101;-66
2022/01/28 07:04:59;;;;;;;;;;;;;;;;;;4223459;28;1014;-67
2022/01/28 07:07:22;;;;;;;;;;;;;;;;;;4223567;28;973;-66
2022/01/28 07:09:42;;;;;;;;;;;;;;;;;;4223739;28;1011;-66
2022/01/28 07:12:02;;;;;;;;;;;;;;;;;;4223740;28;950;-66
2022/01/28 07:14:23;;;;;;;;;;;;;;;;;;4223427;28;829;-66
2022/01/28 07:16:43;;;;;;;;;;;;;;;;;;4223540;28;1184;-67
2022/01/28 07:19:04;;;;;;;;;;;;;;;;;;4223384;28;1037;-66
2022/01/28 07:21:24;;;;;;;;;;;;;;;;;;4222026;28;1992;-66
2022/01/28 07:23:45;;;;;;;;;;;;;;;;;;4221700;28;965;-67
2022/01/28 07:26:06;;;;;;;;;;;;;;;;;;4224125;28;826;-66
2022/01/28 07:28:26;;;;;;;;;;;;;;;;;;4224093;28;931;-66
2022/01/28 07:30:47;;;;;;;;;;;;;;;;;;4223341;28;953;-65
2022/01/28 07:33:09;;;;;;;;;;;;;;;;;;4223005;28;1267;-65
2022/01/28 07:35:30;;;;;;;;;;;;;;;;;;4222055;28;1429;-66
2022/01/28 07:37:51;;;;;;;;;;;;;;;;;;4219815;28;1425;-66
2022/01/28 07:40:11;;;;;;;;;;;;;;;;;;4220213;28;1971;-66
2022/01/28 07:42:34;;;;;;;;;;;;;;;;;;4220919;28;1496;-66
2022/01/28 07:44:54;;;;;;;;;;;;;;;;;;4219116;28;1767;-66
2022/01/28 07:47:14;;;;;;;;;;;;;;;;;;4219273;28;1576;-67
2022/01/28 07:49:35;;;;;;;;;;;;;;;;;;4221657;28;1471;-66
2022/01/28 07:51:56;;;;;;;;;;;;;;;;;;4222679;28;1654;-66
2022/01/28 07:54:16;;;;;;;;;;;;;;;;;;4221148;28;1734;-66
2022/01/28 07:56:37;;;;;;;;;;;;;;;;;;4220190;28;1530;-65
2022/01/28 07:58:57;;;;;;;;;;;;;;;;;;4218812;28;1530;-65
2022/01/28 08:01:17;;;;;;;;;;;;;;;;;;4221841;28;1991;-65
2022/01/28 08:03:38;;;;;;;;;;;;;;;;;;4220206;28;2018;-65
2022/01/28 08:05:59;;;;;;;;;;;;;;;;;;4221669;28;1909;-65
2022/01/28 08:08:20;;;;;;;;;;;;;;;;;;4219950;28;1739;-66
2022/01/28 08:10:41;;;;;;;;;;;;;;;;;;4206115;28;1040;-65
2022/01/28 08:13:03;;;;;;;;;;;;;;;;;;4204766;28;1008;-65
2022/01/28 08:15:23;;;;;;;;;;;;;;;;;;4206119;28;1028;-65
2022/01/28 08:17:44;;;;;;;;;;;;;;;;;;4205952;28;1262;-65
2022/01/28 08:20:04;;;;;;;;;;;;;;;;;;4205909;28;1977;-65
2022/01/28 08:22:25;;;;;;;;;;;;;;;;;;4206073;28;1212;-65
2022/01/28 08:24:45;;;;;;;;;;;;;;;;;;4205897;28;1112;-65
2022/01/28 08:27:06;;;;;;;;;;;;;;;;;;4205790;28;1144;-65
2022/01/28 08:29:27;;;;;;;;;;;;;;;;;;4219123;28;908;-65
2022/01/28 08:31:47;;;;;;;;;;;;;;;;;;4205763;28;1066;-65
2022/01/28 08:34:08;;;;;;;;;;;;;;;;;;4205921;28;944;-66
2022/01/28 08:36:28;;;;;;;;;;;;;;;;;;4205955;28;942;-65
2022/01/28 08:38:50;;;;;;;;;;;;;;;;;;4205730;28;921;-65
2022/01/28 08:41:12;;;;;;;;;;;;;;;;;;4205721;28;1985;-65
2022/01/28 08:43:33;;;;;;;;;;;;;;;;;;4205777;28;1094;-65
2022/01/28 08:45:54;;;;;;;;;;;;;;;;;;4205733;28;962;-66
2022/01/28 08:48:14;;;;;;;;;;;;;;;;;;4205677;28;1636;-65
2022/01/28 08:50:35;;;;;;;;;;;;;;;;;;4205798;28;978;-64
2022/01/28 08:52:56;;;;;;;;;;;;;;;;;;4218900;28;1022;-64
2022/01/28 08:55:16;;;;;;;;;;;;;;;;;;4205630;28;950;-64
2022/01/28 08:57:43;;;;;;;;;;;;;;;;;;4205411;28;1122;-63
2022/01/28 09:00:07;;;;;;;;;;;;;;;;;;4205515;28;1103;-64
2022/01/28 09:02:27;;;;;;;;;;;;;;;;;;4218779;28;1111;-64
2022/01/28 09:04:48;;;;;;;;;;;;;;;;;;4220718;28;1771;-64
2022/01/28 09:07:08;;;;;;;;;;;;;;;;;;4222099;28;947;-64
2022/01/28 09:09:29;;;;;;;;;;;;;;;;;;4222234;28;1201;-66
2022/01/28 09:12:05;;;;;;;;;;;;;;;;;;4220560;28;1584;-66
2022/01/28 09:14:25;;;;;;;;;;;;;;;;;;4222528;28;934;-66
2022/01/28 09:16:46;;;;;;;;;;;;;;;;;;4221968;28;980;-66
2022/01/28 09:19:06;;;;;;;;;;;;;;;;;;4221658;28;930;-66
2022/01/28 09:21:26;;;;;;;;;;;;;;;;;;4220682;28;1886;-66
2022/01/28 09:23:47;;;;;;;;;;;;;;;;;;4221201;28;908;-66
2022/01/28 09:26:07;;;;;;;;;;;;;;;;;;4221516;28;1035;-66
2022/01/28 09:28:28;;;;;;;;;;;;;;;;;;4220606;28;1025;-65
2022/01/28 09:30:48;;;;;;;;;;;;;;;;;;4221776;28;911;-65
2022/01/28 09:33:08;;;;;;;;;;;;;;;;;;4220468;28;1314;-66
2022/01/28 09:35:30;;;;;;;;;;;;;;;;;;4220192;28;1126;-66
2022/01/28 09:37:51;;;;;;;;;;;;;;;;;;4221547;28;941;-66
2022/01/28 09:40:11;;;;;;;;;;;;;;;;;;4221503;28;940;-68
2022/01/28 09:42:35;;;;;;;;;;;;;;;;;;4220993;28;958;-68
2022/01/28 09:44:55;;;;;;;;;;;;;;;;;;4221672;28;940;-67
2022/01/28 09:47:16;;;;;;;;;;;;;;;;;;4222400;28;928;-67
2022/01/28 09:49:37;;;;;;;;;;;;;;;;;;4221348;28;1001;-67
2022/01/28 09:51:58;;;;;;;;;;;;;;;;;;4220415;28;954;-69
2022/01/28 09:54:18;;;;;;;;;;;;;;;;;;4219292;28;1477;-67
2022/01/28 09:56:39;;;;;;;;;;;;;;;;;;4211792;28;1441;-67
2022/01/28 09:58:59;;;;;;;;;;;;;;;;;;4219602;28;937;-68
2022/01/28 10:01:20;;;;;;;;;;;;;;;;;;4214852;28;1983;-68
2022/01/28 10:03:41;;;;;;;;;;;;;;;;;;4218734;28;1352;-67
2022/01/28 10:06:01;;;;;;;;;;;;;;;;;;4218595;28;1552;-68
2022/01/28 10:08:22;;;;;;;;;;;;;;;;;;4221086;28;932;-67
2022/01/28 10:10:42;;;;;;;;;;;;;;;;;;4220544;28;1190;-68
2022/01/28 10:13:03;;;;;;;;;;;;;;;;;;4220816;28;1452;-67
2022/01/28 10:15:29;;;;;;;;;;;;;;;;;;4221581;28;1045;-67
2022/01/28 10:17:50;;;;;;;;;;;;;;;;;;4220868;28;1035;-67
2022/01/28 10:20:10;;;;;;;;;;;;;;;;;;4220740;28;871;-68
2022/01/28 10:22:32;;;;;;;;;;;;;;;;;;4220964;28;1982;-67
2022/01/28 10:24:53;;;;;;;;;;;;;;;;;;4219995;28;1207;-67
2022/01/28 10:27:16;;;;;;;;;;;;;;;;;;4220724;28;1593;-68
2022/01/28 10:29:36;;;;;;;;;;;;;;;;;;4219422;28;1402;-68
2022/01/28 10:31:56;;;;;;;;;;;;;;;;;;4219344;28;1715;-68
2022/01/28 10:34:17;;;;;;;;;;;;;;;;;;4219629;28;1202;-66
2022/01/28 10:36:38;;;;;;;;;;;;;;;;;;4220253;28;1703;-65
2022/01/28 10:38:59;;;;;;;;;;;;;;;;;;4221673;28;1424;-65
2022/01/28 10:41:20;;;;;;;;;;;;;;;;;;4223074;28;1977;-66
2022/01/28 10:43:41;;;;;;;;;;;;;;;;;;4221004;28;1600;-65
2022/01/28 10:46:01;;;;;;;;;;;;;;;;;;4220902;28;1784;-65
2022/01/28 10:48:21;;;;;;;;;;;;;;;;;;4221079;28;1741;-66
2022/01/28 10:50:41;;;;;;;;;;;;;;;;;;4223796;28;1736;-68
2022/01/28 10:53:02;;;;;;;;;;;;;;;;;;4222539;28;1648;-63
2022/01/28 10:55:23;;;;;;;;;;;;;;;;;;4222761;28;2094;-66
2022/01/28 10:57:43;;;;;;;;;;;;;;;;;;4224123;28;1948;-65
2022/01/28 11:00:03;;;;;;;;;;;;;;;;;;4223578;28;1694;-65
2022/01/28 11:02:24;;;;;;;;;;;;;;;;;;4222448;28;1902;-66
2022/01/28 11:04:46;;;;;;;;;;;;;;;;;;4220910;28;2106;-67
2022/01/28 11:07:06;;;;;;;;;;;;;;;;;;4222867;28;1078;-67
2022/01/28 11:09:26;;;;;;;;;;;;;;;;;;4221928;28;1848;-67
2022/01/28 11:11:47;;;;;;;;;;;;;;;;;;4223657;28;1904;-66
2022/01/28 11:14:07;;;;;;;;;;;;;;;;;;4226981;28;1908;-66
2022/01/28 11:16:28;;;;;;;;;;;;;;;;;;4223032;28;1959;-67
2022/01/28 11:19:55;;;;;;;;;;;;;;;;;;4232410;27;1644;-65
2022/01/28 11:22:16;;;;;;;;;;;;;;;;;;4263174;27;1069;-65
2022/01/28 11:24:36;;;;;;;;;;;;;;;;;;4235033;28;1477;-66
2022/01/28 11:26:56;;;;;;;;;;;;;;;;;;4234863;28;824;-67
2022/01/28 11:29:17;;;;;;;;;;;;;;;;;;4234195;28;864;-66
2022/01/28 11:31:37;;;;;;;;;;;;;;;;;;4235149;28;945;-64
2022/01/28 11:33:58;;;;;;;;;;;;;;;;;;4233274;28;1068;-65
2022/01/28 11:36:18;;;;;;;;;;;;;;;;;;4233541;28;1037;-66
2022/01/28 11:38:39;;;;;;;;;;;;;;;;;;4234352;28;1980;-66
2022/01/28 11:40:59;;;;;;;;;;;;;;;;;;4234085;27;937;-69
2022/01/28 11:43:20;;;;;;;;;;;;;;;;;;4234727;27;980;-67
2022/01/28 11:45:40;;;;;;;;;;;;;;;;;;4234040;28;991;-66
2022/01/28 11:48:01;;;;;;;;;;;;;;;;;;4234274;28;1261;-65
2022/01/28 11:50:22;;;;;;;;;;;;;;;;;;4234728;28;1024;-65
2022/01/28 11:52:42;;;;;;;;;;;;;;;;;;4230977;28;2232;-65
2022/01/28 11:55:02;;;;;;;;;;;;;;;;;;4232291;28;2982;-66
2022/01/28 11:57:24;;;;;;;;;;;;;;;;;;4231651;28;884;-65
2022/01/28 11:59:44;;;;;;;;;;;;;;;;;;4231553;28;1901;-64
2022/01/28 12:02:05;;;;;;;;;;;;;;;;;;4230803;28;2059;-64
2022/01/28 12:04:26;;;;;;;;;;;;;;;;;;4233856;28;830;-63
2022/01/28 12:06:47;;;;;;;;;;;;;;;;;;4233453;28;942;-64
2022/01/28 12:09:08;;;;;;;;;;;;;;;;;;4238461;27;1642;-63
2022/01/28 12:11:29;;;;;;;;;;;;;;;;;;4239528;27;1879;-63
2022/01/28 12:13:50;;;;;;;;;;;;;;;;;;4234611;27;1890;-63
2022/01/28 12:16:12;;;;;;;;;;;;;;;;;;4239383;27;1626;-62
2022/01/28 12:18:33;;;;;;;;;;;;;;;;;;4237557;27;2835;-65
2022/01/28 12:20:53;;;;;;;;;;;;;;;;;;4233792;28;1267;-64
2022/01/28 12:23:14;;;;;;;;;;;;;;;;;;4234505;28;1768;-64
2022/01/28 12:25:34;;;;;;;;;;;;;;;;;;4230153;27;1531;-63
2022/01/28 12:27:54;;;;;;;;;;;;;;;;;;4227868;27;2868;-63
2022/01/28 12:30:15;;;;;;;;;;;;;;;;;;4222739;28;2336;-64
2022/01/28 12:32:35;;;;;;;;;;;;;;;;;;4219460;28;1528;-64
2022/01/28 12:34:56;;;;;;;;;;;;;;;;;;4222994;28;983;-63
2022/01/28 12:37:21;;;;;;;;;;;;;;;;;;4220973;28;1934;-65
2022/01/28 12:39:50;;;;;;;;;;;;;;;;;;4219745;28;1992;-65
2022/01/28 12:42:22;;;;;;;;;;;;;;;;;;4244430;27;1730;-70
2022/01/28 12:44:43;;;;;;;;;;;;;;;;;;4221944;28;1142;-65
2022/01/28 12:47:03;;;;;;;;;;;;;;;;;;4222474;28;1396;-62
2022/01/28 12:49:24;;;;;;;;;;;;;;;;;;4222836;28;1726;-64
2022/01/28 12:51:45;;;;;;;;;;;;;;;;;;4222549;28;1015;-66
2022/01/28 12:54:06;;;;;;;;;;;;;;;;;;4221016;28;1378;-66
2022/01/28 12:56:26;;;;;;;;;;;;;;;;;;4218498;28;2680;-66
2022/01/28 12:58:47;;;;;;;;;;;;;;;;;;4219736;28;1918;-64
2022/01/28 13:01:07;;;;;;;;;;;;;;;;;;4217278;28;1644;-64
2022/01/28 13:03:33;;;;;;;;;;;;;;;;;;4205510;28;1034;-67
2022/01/28 13:06:02;;;;;;;;;;;;;;;;;;4205669;28;1904;-68
2022/01/28 13:08:28;;;;;;;;;;;;;;;;;;4220498;28;1513;-67
2022/01/28 13:10:49;;;;;;;;;;;;;;;;;;4209844;28;1084;-66
2022/01/28 13:13:09;;;;;;;;;;;;;;;;;;4217383;28;1535;-65
2022/01/28 13:15:30;;;;;;;;;;;;;;;;;;4222002;28;1827;-65
2022/01/28 13:17:51;;;;;;;;;;;;;;;;;;4218246;28;1155;-67
2022/01/28 13:20:11;;;;;;;;;;;;;;;;;;4217866;28;1914;-65
2022/01/28 13:22:32;;;;;;;;;;;;;;;;;;4221454;28;1149;-65
2022/01/28 13:24:52;;;;;;;;;;;;;;;;;;4221387;28;1256;-66
2022/01/28 13:27:13;;;;;;;;;;;;;;;;;;4222166;28;1020;-65
2022/01/28 13:29:33;;;;;;;;;;;;;;;;;;4221351;28;1774;-65
2022/01/28 13:31:54;;;;;;;;;;;;;;;;;;4219957;28;1972;-66
2022/01/28 13:34:14;;;;;;;;;;;;;;;;;;4219572;28;3040;-65
2022/01/28 13:36:35;;;;;;;;;;;;;;;;;;4222884;28;950;-66
2022/01/28 13:38:55;;;;;;;;;;;;;;;;;;4210100;28;1982;-66
2022/01/28 13:41:15;;;;;;;;;;;;;;;;;;4221865;28;1005;-67
2022/01/28 13:43:36;;;;;;;;;;;;;;;;;;4222497;28;974;-66
2022/01/28 13:45:59;;;;;;;;;;;;;;;;;;4222377;28;1350;-67
2022/01/28 13:48:21;;;;;;;;;;;;;;;;;;4212663;28;1532;-67
2022/01/28 13:50:42;;;;;;;;;;;;;;;;;;4221588;28;1565;-67
2022/01/28 13:53:08;;;;;;;;;;;;;;;;;;4221978;28;1875;-68
2022/01/28 13:55:28;;;;;;;;;;;;;;;;;;4221255;28;1107;-68
2022/01/28 13:57:48;;;;;;;;;;;;;;;;;;4222179;28;1291;-68
2022/01/28 14:00:08;;;;;;;;;;;;;;;;;;4220951;28;1914;-68
2022/01/28 14:02:35;;;;;;;;;;;;;;;;;;4222582;28;1208;-68
2022/01/28 14:04:56;;;;;;;;;;;;;;;;;;4220935;28;1008;-66
2022/01/28 14:07:16;;;;;;;;;;;;;;;;;;4221461;28;2148;-67
2022/01/28 14:09:36;;;;;;;;;;;;;;;;;;4218231;28;2310;-66
2022/01/28 14:12:01;;;;;;;;;;;;;;;;;;4221025;28;999;-67
2022/01/28 14:14:24;;;;;;;;;;;;;;;;;;4220146;28;1314;-66
2022/01/28 14:16:45;;;;;;;;;;;;;;;;;;4221157;28;954;-66
2022/01/28 14:19:05;;;;;;;;;;;;;;;;;;4222718;28;1975;-66
2022/01/28 14:21:25;;;;;;;;;;;;;;;;;;4221285;28;1088;-66
2022/01/28 14:23:46;;;;;;;;;;;;;;;;;;4220948;28;1683;-67
2022/01/28 14:26:06;;;;;;;;;;;;;;;;;;4221989;28;941;-67
2022/01/28 14:28:39;;;;;;;;;;;;;;;;;;4221684;28;1496;-68
2022/01/28 14:31:08;;;;;;;;;;;;;;;;;;4220599;28;1745;-66
2022/01/28 14:33:28;;;;;;;;;;;;;;;;;;4221388;28;1771;-66
2022/01/28 14:35:48;;;;;;;;;;;;;;;;;;4220904;28;1638;-66
2022/01/28 14:38:11;;;;;;;;;;;;;;;;;;4221000;28;1383;-68
2022/01/28 14:40:31;;;;;;;;;;;;;;;;;;4219455;28;1910;-67
2022/01/28 14:42:51;;;;;;;;;;;;;;;;;;4221510;28;1485;-66
2022/01/28 14:45:12;;;;;;;;;;;;;;;;;;4221329;28;1456;-65
2022/01/28 14:47:33;;;;;;;;;;;;;;;;;;4220218;28;893;-66
2022/01/28 14:49:53;;;;;;;;;;;;;;;;;;4221931;28;1195;-67
2022/01/28 14:52:18;;;;;;;;;;;;;;;;;;4221462;28;1188;-66
2022/01/28 14:54:39;;;;;;;;;;;;;;;;;;4220244;28;1765;-65
2022/01/28 14:57:00;;;;;;;;;;;;;;;;;;4221136;28;1017;-66
2022/01/28 14:59:20;;;;;;;;;;;;;;;;;;4221068;28;1991;-65
2022/01/28 15:01:41;;;;;;;;;;;;;;;;;;4221257;28;1032;-65
2022/01/28 15:04:01;;;;;;;;;;;;;;;;;;4221307;28;1020;-64
2022/01/28 15:06:22;;;;;;;;;;;;;;;;;;4204653;28;887;-65
2022/01/28 15:08:44;;;;;;;;;;;;;;;;;;4205081;28;1182;-66
2022/01/28 15:11:05;;;;;;;;;;;;;;;;;;4221606;28;1028;-65
2022/01/28 15:13:25;;;;;;;;;;;;;;;;;;4220991;28;1005;-66
2022/01/28 15:15:46;;;;;;;;;;;;;;;;;;4221622;28;1454;-66
2022/01/28 15:18:06;;;;;;;;;;;;;;;;;;4214148;28;2158;-66
2022/01/28 15:20:28;;;;;;;;;;;;;;;;;;4211514;28;1988;-64
2022/01/28 15:22:48;;;;;;;;;;;;;;;;;;4208142;28;1747;-65
2022/01/28 15:25:08;;;;;;;;;;;;;;;;;;4245307;27;2240;-65
2022/01/28 15:27:29;;;;;;;;;;;;;;;;;;4218823;28;2133;-65
2022/01/28 15:29:59;;;;;;;;;;;;;;;;;;4218537;28;2063;-64
2022/01/28 15:37:44;;;;;;;;;;;;;;;;;;4203732;28;1369;-65
2022/01/28 15:40:05;;;;;;;;;;;;;;;;;;4216281;28;1906;-66
2022/01/28 15:42:25;;;;;;;;;;;;;;;;;;4217368;28;1720;-64
2022/01/28 15:44:46;;;;;;;;;;;;;;;;;;4216383;28;884;-65
2022/01/28 15:47:07;;;;;;;;;;;;;;;;;;4219149;28;1770;-65
2022/01/28 15:49:27;;;;;;;;;;;;;;;;;;4221051;28;1681;-65
2022/01/28 15:51:48;;;;;;;;;;;;;;;;;;4218908;28;1586;-65
2022/01/28 15:54:10;;;;;;;;;;;;;;;;;;4217503;28;1282;-66
2022/01/28 15:56:31;;;;;;;;;;;;;;;;;;4220208;28;1184;-65
2022/01/28 15:58:51;;;;;;;;;;;;;;;;;;4221170;28;923;-65
2022/01/28 16:01:12;;;;;;;;;;;;;;;;;;4220886;28;1988;-65
2022/01/28 16:03:32;;;;;;;;;;;;;;;;;;4216836;28;2400;-62
2022/01/28 16:05:52;;;;;;;;;;;;;;;;;;4222024;28;987;-63
2022/01/28 16:08:13;;;;;;;;;;;;;;;;;;4223901;28;958;-62
2022/01/28 16:10:37;;;;;;;;;;;;;;;;;;4221696;28;2129;-62
2022/01/28 16:13:13;;;;;;;;;;;;;;;;;;4220325;28;2213;-62
2022/01/28 16:17:06;;;;;;;;;;;;;;;;;;4217018;28;3337;-63
2022/01/28 16:18:20;;;;;;;;;;;;;;;;;;4221920;28;1764;-63
2022/01/28 16:20:41;;;;;;;;;;;;;;;;;;4221202;28;1886;-66
2022/01/28 16:23:02;;;;;;;;;;;;;;;;;;4222309;28;1760;-65
2022/01/28 16:25:22;;;;;;;;;;;;;;;;;;4222741;28;1775;-66
2022/01/28 16:27:43;;;;;;;;;;;;;;;;;;4218068;28;1683;-67
2022/01/28 16:30:03;;;;;;;;;;;;;;;;;;4222653;28;1766;-66
2022/01/28 16:32:23;;;;;;;;;;;;;;;;;;4222037;28;1629;-67
2022/01/28 16:34:44;;;;;;;;;;;;;;;;;;4222475;28;1711;-67
2022/01/28 16:37:04;;;;;;;;;;;;;;;;;;4207651;28;1072;-66
2022/01/28 16:39:25;;;;;;;;;;;;;;;;;;4222552;28;1751;-66
2022/01/28 16:41:46;;;;;;;;;;;;;;;;;;4214578;28;1918;-66
2022/01/28 16:44:10;;;;;;;;;;;;;;;;;;4221621;28;3139;-67
2022/01/28 16:46:30;;;;;;;;;;;;;;;;;;4214017;28;2246;-66
2022/01/28 16:48:51;;;;;;;;;;;;;;;;;;4219653;28;1812;-67
2022/01/28 16:51:11;;;;;;;;;;;;;;;;;;4221938;28;1138;-66
2022/01/28 16:53:32;;;;;;;;;;;;;;;;;;4209676;28;2298;-66
2022/01/28 16:55:52;;;;;;;;;;;;;;;;;;4210028;28;1217;-66
2022/01/28 16:58:12;;;;;;;;;;;;;;;;;;4223126;28;864;-67
2022/01/28 17:00:32;;;;;;;;;;;;;;;;;;4217502;28;1901;-66
2022/01/28 17:02:53;;;;;;;;;;;;;;;;;;4222822;28;1423;-67
2022/01/28 17:05:14;;;;;;;;;;;;;;;;;;4222819;28;1208;-66
2022/01/28 17:07:36;;;;;;;;;;;;;;;;;;4218392;28;3075;-66
2022/01/28 17:10:04;;;;;;;;;;;;;;;;;;4216804;28;1167;-67
2022/01/28 17:12:35;;;;;;;;;;;;;;;;;;4222260;28;1112;-66
2022/01/28 17:14:56;;;;;;;;;;;;;;;;;;4216829;28;1142;-67
2022/01/28 17:17:17;;;;;;;;;;;;;;;;;;4205957;28;986;-67
2022/01/28 17:19:40;;;;;;;;;;;;;;;;;;4214071;28;2825;-66
2022/01/28 17:22:01;;;;;;;;;;;;;;;;;;4205626;28;1909;-66
2022/01/28 17:24:21;;;;;;;;;;;;;;;;;;4211460;28;2594;-67
2022/01/28 17:26:42;;;;;;;;;;;;;;;;;;4206383;28;1717;-67
2022/01/28 17:29:03;;;;;;;;;;;;;;;;;;4213996;28;1010;-67
2022/01/28 17:31:24;;;;;;;;;;;;;;;;;;4222257;28;1903;-67
2022/01/28 17:33:44;;;;;;;;;;;;;;;;;;4220108;28;2636;-67